Airfield :
LOGIN :

Register | Disclaimer

   EN    FR    IT 

 










Legend :    VFR   Marginal VFR   IFR   Intensive IFR   Very Intensive IFR
Visi :
Ceiling :
>= 8 km
>= 3000ft
5 to 8 km
1000 to 3000 ft
1500m to 5 km
500 to 1000 ft
800 to 1500m
200 to 500 ft
< 800m
< 200 ft
Symbols :   Thunderstorms  Fog  Heavy snow  Heavy precipitations  Wind > 20 kt
SIGMETs :     Misc.  Thunderstorms  Icing  Turbulence  Mountain Waves  Volcanic Ashes







- Airport Elevation : 146 ft
- IATA code : RKE


EKRK - Roskilde Tune

CURRENT METAR :
  • 201850Z AUTO 12004KT 5000NDV OVC050/// 01/00 Q1003

EXPIRED METARs :
  • 201820Z AUTO 13004KT 4900NDV BR OVC050/// 01/00 Q1003
  • 201750Z AUTO 14003KT 5000NDV SCT018/// BKN021/// OVC050/// 01/00 Q1003
  • 201720Z AUTO 15003KT 5000NDV FEW014/// BKN019/// OVC022/// 01/00 Q1003
  • 201650Z AUTO 16004KT 5000NDV SCT015/// OVC018/// 01/00 Q1003
  • 201620Z AUTO 17004KT 5000NDV FEW009/// BKN014/// OVC017/// 01/01 Q1002

TAF TAF EKRK
Valid from the 20 at 18:00 until the 21 at 03:00 UTC


201721Z 2018/2103 17006KT 9000 FEW008 BKN015
TEMPO 2018/2103 3000 -SHSNRA BR BKN008
No reported NOTAMs for that airfield.



MET'MAP, your aeronautical weather chart ! - Copyright ORBIFLY December 2007 - Disclaimer

ORBIFLY MET'MAP TEAM :

Programming & Development : Alexandra Zaïnal
Concept & Development : Baudouin d'Aumeries
Co-Development & Prog : Marc-Olivier Méhu
Technical & hardware support : Manuel Goepfert

Contact : metmap@orbifly.com




SOURCES & CREDITS :

   NOAA